Time;durP1;ratioP1;P1;durP2;ratioP2;P2;SDS_P1;SDS_P2;PMS_P1;PMS_P2;Temp;Humidity;BMP_temperature;BMP_pressure;BME280_temperature;BME280_humidity;BME280_pressure;Samples;Min_cycle;Max_cycle;Signal;HPM_P1;HPM_P2
2021/11/04 00:00:43;;;;;;;;;;;;;;;14.64;72.73;100139.97;1053239;28;1961;-59
2021/11/04 00:01:33;;;;;;;;;;;;;;;14.65;72.46;100135.44;1052909;28;747;-59
2021/11/04 00:02:23;;;;;;;;;;;;;;;14.65;73.39;100138.13;1052625;28;633;-61
2021/11/04 00:03:14;;;;;;;;;;;;;;;14.65;73.00;100138.97;1052839;28;642;-62
2021/11/04 00:04:04;;;;;;;;;;;;;;;14.64;72.99;100137.28;1052665;28;1877;-61
2021/11/04 00:04:55;;;;;;;;;;;;;;;14.65;72.23;100138.97;1052807;28;739;-61
2021/11/04 00:05:45;;;;;;;;;;;;;;;14.65;73.10;100138.97;1052873;28;734;-62
2021/11/04 00:06:35;;;;;;;;;;;;;;;14.65;73.00;100140.81;1052581;28;665;-62
2021/11/04 00:07:26;;;;;;;;;;;;;;;14.65;72.80;100138.13;1052829;28;637;-62
2021/11/04 00:08:16;;;;;;;;;;;;;;;14.65;73.07;100138.13;1052580;28;891;-62
2021/11/04 00:09:07;;;;;;;;;;;;;;;14.63;72.46;100132.91;1052841;28;948;-62
2021/11/04 00:09:57;;;;;;;;;;;;;;;14.64;72.64;100137.28;1052944;28;744;-60
2021/11/04 00:10:48;;;;;;;;;;;;;;;14.64;72.87;100133.75;1052604;28;672;-61
2021/11/04 00:11:38;;;;;;;;;;;;;;;14.63;72.77;100130.22;1052979;28;735;-61
2021/11/04 00:12:29;;;;;;;;;;;;;;;14.63;73.23;100130.22;1053174;28;876;-61
2021/11/04 00:13:19;;;;;;;;;;;;;;;14.62;73.00;100122.31;1052925;28;653;-61
2021/11/04 00:14:10;;;;;;;;;;;;;;;14.63;72.50;100130.22;1055123;28;1937;-63
2021/11/04 00:15:00;;;;;;;;;;;;;;;14.63;73.31;100129.38;1057110;28;789;-63
2021/11/04 00:15:50;;;;;;;;;;;;;;;14.62;72.86;100125.84;1056883;28;792;-63
2021/11/04 00:16:41;;;;;;;;;;;;;;;14.62;73.04;100130.34;1056878;28;936;-63
2021/11/04 00:17:31;;;;;;;;;;;;;;;14.63;72.91;100124.00;1057175;28;621;-63
2021/11/04 00:18:22;;;;;;;;;;;;;;;14.62;72.31;100131.22;1056865;28;616;-63
2021/11/04 00:19:12;;;;;;;;;;;;;;;14.62;72.49;100122.31;1057205;28;684;-63
2021/11/04 00:20:03;;;;;;;;;;;;;;;14.61;73.06;100120.63;1056894;28;610;-63
2021/11/04 00:20:53;;;;;;;;;;;;;;;14.62;72.53;100125.84;1056915;28;857;-63
2021/11/04 00:21:43;;;;;;;;;;;;;;;14.63;73.01;100119.50;1056814;28;734;-63
2021/11/04 00:22:34;;;;;;;;;;;;;;;14.62;72.57;100117.81;1056971;28;708;-63
2021/11/04 00:23:24;;;;;;;;;;;;;;;14.60;72.55;100109.06;1057086;28;836;-63
2021/11/04 00:24:15;;;;;;;;;;;;;;;14.60;73.19;100117.09;1056603;28;1934;-63
2021/11/04 00:25:05;;;;;;;;;;;;;;;14.59;72.60;100113.56;1056997;28;1037;-63
2021/11/04 00:25:56;;;;;;;;;;;;;;;14.61;72.44;100118.78;1056739;28;745;-63
2021/11/04 00:26:46;;;;;;;;;;;;;;;14.60;72.90;100119.78;1057036;28;772;-63
2021/11/04 00:27:36;;;;;;;;;;;;;;;14.61;72.41;100113.41;1056675;28;710;-63
2021/11/04 00:28:27;;;;;;;;;;;;;;;14.59;73.00;100120.75;1056373;28;689;-63
2021/11/04 00:29:17;;;;;;;;;;;;;;;14.60;73.03;100114.41;1056948;28;1164;-63
2021/11/04 00:30:08;;;;;;;;;;;;;;;14.60;72.90;100117.09;1056897;28;700;-63
2021/11/04 00:30:58;;;;;;;;;;;;;;;14.61;72.84;100123.31;1056926;28;786;-63
2021/11/04 00:31:48;;;;;;;;;;;;;;;14.58;73.24;100116.38;1056805;28;714;-63
2021/11/04 00:32:39;;;;;;;;;;;;;;;14.59;73.13;100118.06;1056826;28;639;-63
2021/11/04 00:33:29;;;;;;;;;;;;;;;14.56;72.59;100124.56;1057060;28;865;-63
2021/11/04 00:34:20;;;;;;;;;;;;;;;14.57;72.76;100126.25;1052668;28;1818;-63
2021/11/04 00:35:10;;;;;;;;;;;;;;;14.58;72.81;100127.97;1052709;28;886;-63
2021/11/04 00:36:01;;;;;;;;;;;;;;;14.59;72.99;100120.75;1052488;28;740;-63
2021/11/04 00:36:51;;;;;;;;;;;;;;;14.58;72.23;100121.75;1052594;28;729;-63
2021/11/04 00:37:41;;;;;;;;;;;;;;;14.56;73.05;100121.88;1052314;28;819;-63
2021/11/04 00:38:32;;;;;;;;;;;;;;;14.56;73.03;100121.88;1052549;28;732;-63
2021/11/04 00:39:22;;;;;;;;;;;;;;;14.56;72.33;100123.72;1052685;28;861;-63
2021/11/04 00:40:13;;;;;;;;;;;;;;;14.56;72.97;100129.94;1052436;28;755;-63
2021/11/04 00:41:03;;;;;;;;;;;;;;;14.57;73.01;100128.09;1052791;28;743;-63
2021/11/04 00:41:53;;;;;;;;;;;;;;;14.56;72.34;100123.72;1052267;28;857;-63
2021/11/04 00:42:44;;;;;;;;;;;;;;;14.56;72.69;100121.03;1052685;28;762;-63
2021/11/04 00:43:34;;;;;;;;;;;;;;;14.56;72.50;100119.22;1052649;28;865;-63
2021/11/04 00:44:25;;;;;;;;;;;;;;;14.56;72.33;100118.38;1053050;28;1960;-63
2021/11/04 00:45:16;;;;;;;;;;;;;;;14.55;72.86;100120.19;1052714;28;705;-63
2021/11/04 00:46:06;;;;;;;;;;;;;;;14.56;73.36;100121.03;1053127;28;830;-63
2021/11/04 00:46:56;;;;;;;;;;;;;;;14.55;72.96;100119.34;1053322;28;693;-63
2021/11/04 00:47:47;;;;;;;;;;;;;;;14.55;72.36;100122.03;1052432;28;847;-63
2021/11/04 00:48:37;;;;;;;;;;;;;;;14.55;73.05;100122.03;1052794;28;743;-63
2021/11/04 00:49:28;;;;;;;;;;;;;;;14.54;73.49;100120.34;1052507;28;784;-61
2021/11/04 00:50:18;;;;;;;;;;;;;;;14.54;73.26;100123.00;1052622;28;634;-60
2021/11/04 00:51:09;;;;;;;;;;;;;;;14.54;72.47;100120.34;1052848;28;636;-61
2021/11/04 00:52:00;;;;;;;;;;;;;;;14.54;73.04;100123.88;1052432;28;820;-61
2021/11/04 00:52:50;;;;;;;;;;;;;;;14.54;72.63;100120.34;1052756;28;763;-61
2021/11/04 00:53:40;;;;;;;;;;;;;;;14.55;72.94;100116.66;1052289;28;708;-61
2021/11/04 00:54:31;;;;;;;;;;;;;;;14.54;72.95;100115.81;1052549;28;753;-59
2021/11/04 00:55:22;;;;;;;;;;;;;;;14.53;72.90;100108.75;1052229;28;626;-60
2021/11/04 00:56:12;;;;;;;;;;;;;;;14.53;73.08;100113.28;1054847;28;1996;-60
2021/11/04 00:57:02;;;;;;;;;;;;;;;14.53;72.84;100111.44;1057023;28;660;-60
2021/11/04 00:57:53;;;;;;;;;;;;;;;14.53;72.55;100113.28;1056715;28;782;-60
2021/11/04 00:58:43;;;;;;;;;;;;;;;14.53;72.78;100113.28;1056881;28;680;-61
2021/11/04 00:59:33;;;;;;;;;;;;;;;14.51;73.45;100113.41;1056607;28;1171;-60
2021/11/04 01:00:24;;;;;;;;;;;;;;;14.51;73.17;100120.66;1056309;28;1967;-61
2021/11/04 01:01:14;;;;;;;;;;;;;;;14.52;73.15;100117.78;1056978;28;689;-61
2021/11/04 01:02:05;;;;;;;;;;;;;;;14.52;72.92;100114.25;1053820;28;1850;-61
2021/11/04 01:02:55;;;;;;;;;;;;;;;14.50;73.03;100110.91;1047705;28;677;-61
2021/11/04 01:03:46;;;;;;;;;;;;;;;14.52;72.62;100106.22;1049083;28;910;-61
2021/11/04 01:04:36;;;;;;;;;;;;;;;14.52;72.64;100111.59;1053553;28;940;-61
2021/11/04 01:05:27;;;;;;;;;;;;;;;14.52;73.15;100114.25;1051823;28;767;-61
2021/11/04 01:06:17;;;;;;;;;;;;;;;14.51;72.97;100113.41;1052745;28;653;-61
2021/11/04 01:07:08;;;;;;;;;;;;;;;14.52;72.93;100108.91;1052221;28;648;-61
2021/11/04 01:07:59;;;;;;;;;;;;;;;14.51;73.08;100110.75;1052622;28;709;-61
2021/11/04 01:08:49;;;;;;;;;;;;;;;14.52;73.19;100116.94;1051466;28;802;-61
2021/11/04 01:09:40;;;;;;;;;;;;;;;14.52;73.31;100111.59;1051899;28;744;-61
2021/11/04 01:10:30;;;;;;;;;;;;;;;14.52;73.31;100114.25;1051987;28;714;-62
2021/11/04 01:11:22;;;;;;;;;;;;;;;14.51;72.73;100116.09;1052378;28;770;-61
2021/11/04 01:12:12;;;;;;;;;;;;;;;14.50;73.27;100108.22;1052601;28;2184;-61
2021/11/04 01:13:03;;;;;;;;;;;;;;;14.51;72.75;100120.66;1052428;28;940;-61
2021/11/04 01:13:54;;;;;;;;;;;;;;;14.50;72.54;100118.94;1051598;28;916;-61
2021/11/04 01:14:44;;;;;;;;;;;;;;;14.50;73.09;100114.44;1052079;28;734;-61
2021/11/04 01:15:34;;;;;;;;;;;;;;;14.51;73.23;100116.09;1052148;28;700;-61
2021/11/04 01:16:25;;;;;;;;;;;;;;;14.50;73.30;100116.28;1052415;28;728;-61
2021/11/04 01:17:15;;;;;;;;;;;;;;;14.51;72.91;100120.66;1052456;28;912;-61
2021/11/04 01:18:06;;;;;;;;;;;;;;;14.50;73.25;100113.59;1051777;28;669;-61
2021/11/04 01:18:56;;;;;;;;;;;;;;;14.50;72.46;100116.28;1051868;28;737;-61
2021/11/04 01:19:46;;;;;;;;;;;;;;;14.49;72.65;100118.09;1052251;28;770;-61
2021/11/04 01:20:37;;;;;;;;;;;;;;;14.48;73.26;100113.72;1052336;28;1910;-61
2021/11/04 01:21:27;;;;;;;;;;;;;;;14.48;73.26;100110.19;1052366;28;785;-61
2021/11/04 01:22:20;;;;;;;;;;;;;;;14.48;73.30;100104.84;1052366;28;1828;-61
2021/11/04 01:23:10;;;;;;;;;;;;;;;14.47;72.68;100105.81;1051902;28;871;-61
2021/11/04 01:24:00;;;;;;;;;;;;;;;14.46;72.55;100101.44;1052657;28;706;-61
2021/11/04 01:24:51;;;;;;;;;;;;;;;14.47;72.91;100105.81;1052478;28;786;-61
2021/11/04 01:25:41;;;;;;;;;;;;;;;14.46;73.12;100099.63;1052428;28;744;-61
2021/11/04 01:26:32;;;;;;;;;;;;;;;14.46;73.03;100101.44;1052334;28;610;-61
2021/11/04 01:27:22;;;;;;;;;;;;;;;14.46;72.44;100096.94;1052625;28;848;-61
2021/11/04 01:28:13;;;;;;;;;;;;;;;14.46;72.67;100102.31;1052196;28;729;-61
2021/11/04 01:29:04;;;;;;;;;;;;;;;14.46;72.39;100096.09;1051707;28;1379;-61
2021/11/04 01:29:55;;;;;;;;;;;;;;;14.45;72.82;100097.06;1052411;28;790;-61
2021/11/04 01:30:45;;;;;;;;;;;;;;;14.46;73.04;100096.09;1051646;28;749;-61
2021/11/04 01:31:36;;;;;;;;;;;;;;;14.45;73.02;100095.25;1052325;28;787;-61
2021/11/04 01:32:26;;;;;;;;;;;;;;;14.45;73.07;100102.44;1053085;28;725;-61
2021/11/04 01:33:17;;;;;;;;;;;;;;;14.44;72.54;100100.75;1052329;28;659;-61
2021/11/04 01:34:07;;;;;;;;;;;;;;;14.44;72.43;100100.75;1052627;28;989;-61
2021/11/04 01:34:58;;;;;;;;;;;;;;;14.44;72.86;100098.06;1052354;28;732;-61
2021/11/04 01:35:48;;;;;;;;;;;;;;;14.43;72.78;100101.72;1052369;28;821;-61
2021/11/04 01:36:38;;;;;;;;;;;;;;;14.45;73.20;100105.13;1052581;28;789;-61
2021/11/04 01:37:29;;;;;;;;;;;;;;;14.44;73.32;100103.44;1052422;28;642;-64
2021/11/04 01:38:19;;;;;;;;;;;;;;;14.43;73.30;100107.09;1052565;28;852;-64
2021/11/04 01:39:10;;;;;;;;;;;;;;;14.43;72.62;100101.72;1053069;28;617;-64
2021/11/04 01:40:00;;;;;;;;;;;;;;;14.44;73.08;100103.44;1051982;28;859;-64
2021/11/04 01:40:51;;;;;;;;;;;;;;;14.44;73.09;100100.75;1052216;28;1953;-60
2021/11/04 01:41:41;;;;;;;;;;;;;;;14.44;73.08;100098.91;1052585;28;764;-60
2021/11/04 01:42:31;;;;;;;;;;;;;;;14.43;73.31;100096.38;1053564;28;684;-60
2021/11/04 01:43:22;;;;;;;;;;;;;;;14.43;73.14;100096.38;1052411;28;685;-60
2021/11/04 01:44:12;;;;;;;;;;;;;;;14.43;73.31;100093.69;1052342;28;1080;-60
2021/11/04 01:45:03;;;;;;;;;;;;;;;14.42;72.66;100094.69;1052313;28;648;-60
2021/11/04 01:45:53;;;;;;;;;;;;;;;14.43;73.03;100082.97;1052406;28;737;-60
2021/11/04 01:46:44;;;;;;;;;;;;;;;14.42;72.49;100086.63;1052509;28;1831;-61
2021/11/04 01:47:34;;;;;;;;;;;;;;;14.41;73.50;100088.47;1053011;28;684;-61
2021/11/04 01:48:25;;;;;;;;;;;;;;;14.40;72.89;100086.78;1051416;28;869;-61
2021/11/04 01:49:15;;;;;;;;;;;;;;;14.41;72.45;100092.97;1051899;28;777;-60
2021/11/04 01:50:05;;;;;;;;;;;;;;;14.39;72.78;100089.56;1052006;28;729;-60
2021/11/04 01:50:56;;;;;;;;;;;;;;;14.41;72.76;100088.47;1051732;28;814;-60
2021/11/04 01:51:46;;;;;;;;;;;;;;;14.40;72.62;100088.56;1051872;28;743;-61
2021/11/04 01:52:37;;;;;;;;;;;;;;;14.40;72.91;100092.13;1052695;28;1896;-61
2021/11/04 01:53:27;;;;;;;;;;;;;;;14.40;73.25;100077.84;1051837;28;693;-61
2021/11/04 01:54:17;;;;;;;;;;;;;;;14.41;72.95;100079.56;1051994;28;701;-61
2021/11/04 01:55:08;;;;;;;;;;;;;;;14.40;73.52;100083.22;1052172;28;682;-61
2021/11/04 01:55:58;;;;;;;;;;;;;;;14.39;73.14;100084.19;1052178;28;789;-61
2021/11/04 01:56:49;;;;;;;;;;;;;;;14.40;72.79;100086.78;1052017;28;934;-61
2021/11/04 01:57:39;;;;;;;;;;;;;;;14.39;72.97;100081.53;1051857;28;732;-61
2021/11/04 01:58:29;;;;;;;;;;;;;;;14.38;72.70;100080.66;1052015;28;669;-61
2021/11/04 01:59:20;;;;;;;;;;;;;;;14.38;72.79;100080.66;1051955;28;1196;-60
2021/11/04 02:00:10;;;;;;;;;;;;;;;14.38;73.34;100078.00;1052388;28;711;-61
2021/11/04 02:01:01;;;;;;;;;;;;;;;14.38;73.06;100074.47;1052020;28;845;-61
2021/11/04 02:01:51;;;;;;;;;;;;;;;14.39;72.88;100081.53;1051850;28;768;-61
2021/11/04 02:02:41;;;;;;;;;;;;;;;14.38;73.55;100082.50;1053449;28;719;-61
2021/11/04 02:03:32;;;;;;;;;;;;;;;14.40;73.33;100085.91;1052235;28;739;-62
2021/11/04 02:04:22;;;;;;;;;;;;;;;14.38;72.95;100082.50;1052421;28;689;-61
2021/11/04 02:05:13;;;;;;;;;;;;;;;14.39;72.76;100081.53;1052038;28;837;-61
2021/11/04 02:06:03;;;;;;;;;;;;;;;14.38;72.82;100078.00;1052416;28;662;-61
2021/11/04 02:06:54;;;;;;;;;;;;;;;14.38;73.43;100079.81;1051761;28;752;-61
2021/11/04 02:07:44;;;;;;;;;;;;;;;14.37;72.69;100076.31;1052419;28;622;-61
2021/11/04 02:08:35;;;;;;;;;;;;;;;14.37;72.57;100080.81;1052182;28;725;-61
2021/11/04 02:09:25;;;;;;;;;;;;;;;14.36;72.97;100084.47;1052359;28;848;-61
2021/11/04 02:10:16;;;;;;;;;;;;;;;14.36;72.55;100085.31;1051650;28;669;-61
2021/11/04 02:11:06;;;;;;;;;;;;;;;14.37;73.15;100078.13;1052329;28;762;-61
2021/11/04 02:11:57;;;;;;;;;;;;;;;14.36;73.18;100079.13;1051326;28;773;-61
2021/11/04 02:12:47;;;;;;;;;;;;;;;14.36;72.71;100069.25;1054472;28;1894;-61
2021/11/04 02:13:38;;;;;;;;;;;;;;;14.35;72.88;100083.63;1053271;28;1700;-61
2021/11/04 02:14:28;;;;;;;;;;;;;;;14.33;73.58;100079.44;1051666;28;651;-61
2021/11/04 02:15:20;;;;;;;;;;;;;;;14.34;72.80;100081.94;1052327;28;958;-61
2021/11/04 02:16:11;;;;;;;;;;;;;;;14.34;73.21;100081.09;1051978;28;665;-61
2021/11/04 02:17:01;;;;;;;;;;;;;;;14.35;72.91;100077.44;1051723;28;716;-61
2021/11/04 02:17:51;;;;;;;;;;;;;;;14.35;72.87;100078.28;1051868;28;933;-61
2021/11/04 02:18:42;;;;;;;;;;;;;;;14.35;73.49;100077.44;1052189;28;736;-61
2021/11/04 02:19:32;;;;;;;;;;;;;;;14.34;73.16;100076.56;1052237;28;897;-61
2021/11/04 02:20:23;;;;;;;;;;;;;;;14.34;73.48;100073.91;1052021;28;672;-61
2021/11/04 02:21:13;;;;;;;;;;;;;;;14.33;73.21;100079.44;1052293;28;641;-61
2021/11/04 02:22:03;;;;;;;;;;;;;;;14.33;73.05;100068.72;1051928;28;980;-61
2021/11/04 02:22:55;;;;;;;;;;;;;;;14.33;73.10;100068.72;1055192;28;1960;-61
2021/11/04 02:23:45;;;;;;;;;;;;;;;14.32;72.68;100067.88;1056389;28;804;-61
2021/11/04 02:24:35;;;;;;;;;;;;;;;14.33;72.95;100072.19;1056680;28;746;-61
2021/11/04 02:25:26;;;;;;;;;;;;;;;14.33;72.93;100068.72;1056304;28;947;-61
2021/11/04 02:26:16;;;;;;;;;;;;;;;14.33;72.91;100066.03;1056656;28;779;-63
2021/11/04 02:27:07;;;;;;;;;;;;;;;14.32;72.92;100061.66;1056382;28;618;-63
2021/11/04 02:27:57;;;;;;;;;;;;;;;14.31;73.15;100066.16;1055945;28;808;-63
2021/11/04 02:28:48;;;;;;;;;;;;;;;14.31;73.46;100066.16;1056717;28;738;-63
2021/11/04 02:29:38;;;;;;;;;;;;;;;14.31;72.54;100059.97;1056671;28;851;-63
2021/11/04 02:30:29;;;;;;;;;;;;;;;14.31;73.32;100062.63;1056446;28;1185;-63
2021/11/04 02:31:19;;;;;;;;;;;;;;;14.31;72.79;100066.16;1056616;28;621;-63
2021/11/04 02:32:10;;;;;;;;;;;;;;;14.31;72.71;100063.50;1056238;28;928;-63
2021/11/04 02:33:00;;;;;;;;;;;;;;;14.31;73.08;100059.97;1052318;28;1782;-63
2021/11/04 02:33:51;;;;;;;;;;;;;;;14.31;73.08;100062.63;1052303;28;746;-63
2021/11/04 02:34:41;;;;;;;;;;;;;;;14.30;73.42;100061.78;1052077;28;802;-63
2021/11/04 02:35:31;;;;;;;;;;;;;;;14.30;73.21;100059.13;1052519;28;643;-61
2021/11/04 02:36:22;;;;;;;;;;;;;;;14.29;73.25;100062.78;1052203;28;1087;-64
2021/11/04 02:37:12;;;;;;;;;;;;;;;14.30;73.67;100056.44;1052473;28;677;-64
2021/11/04 02:38:03;;;;;;;;;;;;;;;14.30;72.85;100058.25;1052249;28;614;-64
2021/11/04 02:38:53;;;;;;;;;;;;;;;14.30;72.64;100052.91;1052204;28;680;-64
2021/11/04 02:39:43;;;;;;;;;;;;;;;14.30;73.07;100058.25;1052330;28;1352;-64
2021/11/04 02:40:34;;;;;;;;;;;;;;;14.29;73.54;100061.94;1052036;28;1901;-60
2021/11/04 02:41:24;;;;;;;;;;;;;;;14.30;72.89;100055.59;1052389;28;671;-60
2021/11/04 02:42:15;;;;;;;;;;;;;;;14.28;73.57;100057.56;1052099;28;650;-61
2021/11/04 02:43:05;;;;;;;;;;;;;;;14.28;73.05;100054.88;1052683;28;1661;-62
2021/11/04 02:43:55;;;;;;;;;;;;;;;14.28;73.39;100060.25;1051860;28;874;-62
2021/11/04 02:44:46;;;;;;;;;;;;;;;14.27;73.38;100053.19;1052223;28;856;-62
2021/11/04 02:45:37;;;;;;;;;;;;;;;14.27;73.26;100048.69;1052035;28;614;-59
2021/11/04 02:46:27;;;;;;;;;;;;;;;14.28;73.16;100057.56;1052136;28;1657;-59
2021/11/04 02:47:17;;;;;;;;;;;;;;;14.27;72.84;100059.41;1052423;28;661;-59
2021/11/04 02:48:08;;;;;;;;;;;;;;;14.27;72.90;100061.22;1052164;28;759;-59
2021/11/04 02:48:58;;;;;;;;;;;;;;;14.27;72.76;100050.50;1052318;28;801;-59
2021/11/04 02:49:49;;;;;;;;;;;;;;;14.27;72.97;100058.56;1052131;28;606;-59
2021/11/04 02:50:39;;;;;;;;;;;;;;;14.27;73.18;100059.41;1052279;28;701;-59
2021/11/04 02:51:30;;;;;;;;;;;;;;;14.28;73.35;100060.25;1052500;28;704;-59
2021/11/04 02:52:20;;;;;;;;;;;;;;;14.27;72.72;100058.56;1048397;28;649;-61
2021/11/04 02:53:10;;;;;;;;;;;;;;;14.26;73.42;100060.38;1048393;28;835;-62
2021/11/04 02:54:01;;;;;;;;;;;;;;;14.25;72.89;100062.22;1052693;28;692;-62
2021/11/04 02:54:51;;;;;;;;;;;;;;;14.26;72.74;100063.06;1051783;28;724;-63
2021/11/04 02:55:42;;;;;;;;;;;;;;;14.25;72.82;100053.31;1052144;28;629;-62
2021/11/04 02:56:33;;;;;;;;;;;;;;;14.25;73.44;100067.56;1052124;28;743;-62
2021/11/04 02:57:23;;;;;;;;;;;;;;;14.25;73.27;100061.38;1052299;28;866;-62
2021/11/04 02:58:14;;;;;;;;;;;;;;;14.25;72.55;100058.69;1052426;28;717;-62
2021/11/04 02:59:04;;;;;;;;;;;;;;;14.24;73.36;100065.88;1052121;28;1309;-62
2021/11/04 02:59:54;;;;;;;;;;;;;;;14.25;72.60;100064.03;1052400;28;786;-63
2021/11/04 03:00:45;;;;;;;;;;;;;;;14.24;73.17;100068.56;1051915;28;1976;-59
2021/11/04 03:01:35;;;;;;;;;;;;;;;14.24;73.13;100065.03;1052193;28;946;-59
2021/11/04 03:02:26;;;;;;;;;;;;;;;14.24;72.75;100071.25;1051336;28;720;-59
2021/11/04 03:03:16;;;;;;;;;;;;;;;14.24;73.08;100076.59;1051590;28;930;-59
2021/11/04 03:04:07;;;;;;;;;;;;;;;14.23;72.62;100072.22;1051875;28;938;-59
2021/11/04 03:04:57;;;;;;;;;;;;;;;14.24;73.07;100073.91;1051520;28;618;-59
2021/11/04 03:05:47;;;;;;;;;;;;;;;14.22;73.54;100078.56;1051559;28;944;-59
2021/11/04 03:06:38;;;;;;;;;;;;;;;14.23;72.55;100074.06;1051398;28;689;-59
2021/11/04 03:07:28;;;;;;;;;;;;;;;14.23;73.08;100077.59;1051747;28;1132;-59
2021/11/04 03:08:19;;;;;;;;;;;;;;;14.23;72.86;100077.59;1051918;28;782;-59
2021/11/04 03:09:09;;;;;;;;;;;;;;;14.22;73.46;100081.25;1051666;28;693;-59
2021/11/04 03:09:59;;;;;;;;;;;;;;;14.22;72.68;100081.25;1051742;28;718;-60
2021/11/04 03:10:50;;;;;;;;;;;;;;;14.20;72.95;100082.38;1051943;28;630;-62
2021/11/04 03:11:40;;;;;;;;;;;;;;;14.21;73.30;100079.56;1052422;28;840;-62
2021/11/04 03:12:31;;;;;;;;;;;;;;;14.22;72.52;100088.44;1052494;28;2063;-62
2021/11/04 03:13:21;;;;;;;;;;;;;;;14.21;73.41;100084.91;1052230;28;544;-62
2021/11/04 03:14:11;;;;;;;;;;;;;;;14.20;73.13;100091.25;1052175;28;1390;-62
2021/11/04 03:15:02;;;;;;;;;;;;;;;14.21;73.15;100087.59;1052167;28;653;-63
2021/11/04 03:15:52;;;;;;;;;;;;;;;14.20;72.92;100091.25;1052237;28;748;-63
2021/11/04 03:16:43;;;;;;;;;;;;;;;14.20;73.01;100085.91;1052082;28;662;-64
2021/11/04 03:17:33;;;;;;;;;;;;;;;14.20;72.90;100091.25;1052329;28;630;-64
2021/11/04 03:18:24;;;;;;;;;;;;;;;14.20;73.01;100091.25;1052656;28;720;-64
2021/11/04 03:19:14;;;;;;;;;;;;;;;14.19;73.31;100089.56;1052239;28;693;-63
2021/11/04 03:20:04;;;;;;;;;;;;;;;14.19;73.39;100092.25;1052300;28;906;-63
2021/11/04 03:20:55;;;;;;;;;;;;;;;14.19;73.03;100096.75;1051935;28;1893;-63
2021/11/04 03:21:47;;;;;;;;;;;;;;;14.18;73.27;100092.38;1052258;28;832;-63
2021/11/04 03:22:37;;;;;;;;;;;;;;;14.18;72.86;100098.59;1052456;28;1744;-63
2021/11/04 03:23:28;;;;;;;;;;;;;;;14.18;73.03;100090.56;1051844;28;637;-63
2021/11/04 03:24:18;;;;;;;;;;;;;;;14.19;72.75;100094.06;1052723;28;920;-64
2021/11/04 03:25:09;;;;;;;;;;;;;;;14.18;73.23;100098.59;1052225;28;673;-63
2021/11/04 03:25:59;;;;;;;;;;;;;;;14.16;73.37;100092.53;1054165;28;1605;-63
2021/11/04 03:26:50;;;;;;;;;;;;;;;14.17;72.78;100090.69;1052670;28;618;-64
2021/11/04 03:27:40;;;;;;;;;;;;;;;14.17;73.36;100096.91;1052327;28;685;-64
2021/11/04 03:28:31;;;;;;;;;;;;;;;14.16;73.53;100089.00;1052497;28;962;-64
2021/11/04 03:29:21;;;;;;;;;;;;;;;14.16;73.25;100092.53;1052251;28;702;-64
2021/11/04 03:30:11;;;;;;;;;;;;;;;14.16;73.39;100091.69;1052998;28;641;-64
2021/11/04 03:31:02;;;;;;;;;;;;;;;14.17;72.83;100096.91;1052762;28;681;-64
2021/11/04 03:31:52;;;;;;;;;;;;;;;14.15;72.52;100093.50;1052851;28;712;-64
2021/11/04 03:32:43;;;;;;;;;;;;;;;14.15;73.49;100098.88;1053787;28;913;-64
2021/11/04 03:33:33;;;;;;;;;;;;;;;14.14;73.41;100091.84;1052959;28;626;-64
2021/11/04 03:34:24;;;;;;;;;;;;;;;14.14;73.45;100097.22;1053040;28;818;-64
2021/11/04 03:35:14;;;;;;;;;;;;;;;14.15;72.77;100098.06;1052636;28;717;-64
2021/11/04 03:36:05;;;;;;;;;;;;;;;14.14;73.13;100097.22;1052861;28;627;-65
2021/11/04 03:36:55;;;;;;;;;;;;;;;14.14;72.65;100094.53;1052838;28;1222;-65
2021/11/04 03:37:46;;;;;;;;;;;;;;;14.13;72.61;100094.66;1052633;28;732;-65
2021/11/04 03:38:36;;;;;;;;;;;;;;;14.14;73.18;100091.00;1052768;28;711;-65
2021/11/04 03:39:27;;;;;;;;;;;;;;;14.14;73.46;100096.34;1053047;28;720;-62
2021/11/04 03:40:17;;;;;;;;;;;;;;;14.12;72.98;100104.53;1052809;28;751;-65
2021/11/04 03:41:08;;;;;;;;;;;;;;;14.14;73.28;100104.41;1053079;28;834;-64
2021/11/04 03:41:58;;;;;;;;;;;;;;;14.14;73.31;100107.06;1052842;28;673;-65
2021/11/04 03:42:48;;;;;;;;;;;;;;;14.14;72.95;100101.72;1053022;28;665;-65
2021/11/04 03:43:39;;;;;;;;;;;;;;;14.13;72.63;100100.03;1052624;28;658;-65
2021/11/04 03:44:29;;;;;;;;;;;;;;;14.12;72.67;100101.84;1053007;28;728;-64
2021/11/04 03:45:20;;;;;;;;;;;;;;;14.13;73.43;100100.88;1052459;28;782;-64
2021/11/04 03:46:10;;;;;;;;;;;;;;;14.13;73.06;100100.88;1052919;28;646;-65
2021/11/04 03:47:01;;;;;;;;;;;;;;;14.13;73.13;100100.88;1053609;28;769;-65
2021/11/04 03:47:51;;;;;;;;;;;;;;;14.11;72.53;100102.84;1052826;28;763;-65
2021/11/04 03:48:41;;;;;;;;;;;;;;;14.11;73.13;100107.34;1053070;28;732;-64
2021/11/04 03:49:32;;;;;;;;;;;;;;;14.12;72.59;100103.69;1052752;28;917;-64
2021/11/04 03:50:22;;;;;;;;;;;;;;;14.12;73.21;100103.69;1052982;28;669;-64
2021/11/04 03:51:13;;;;;;;;;;;;;;;14.12;73.22;100103.69;1052742;28;934;-64
2021/11/04 03:52:03;;;;;;;;;;;;;;;14.11;73.08;100100.16;1052356;28;729;-64
2021/11/04 03:52:54;;;;;;;;;;;;;;;14.11;73.41;100107.34;1052625;28;790;-64
2021/11/04 03:53:44;;;;;;;;;;;;;;;14.10;72.64;100105.66;1052108;28;941;-64
2021/11/04 03:54:34;;;;;;;;;;;;;;;14.09;72.63;100101.28;1052544;28;807;-64
2021/11/04 03:55:25;;;;;;;;;;;;;;;14.10;72.92;100105.66;1051992;28;819;-61
2021/11/04 03:56:16;;;;;;;;;;;;;;;14.09;72.50;100099.44;1052031;28;768;-61
2021/11/04 03:57:06;;;;;;;;;;;;;;;14.09;73.29;100101.28;1052266;28;692;-61
2021/11/04 03:57:57;;;;;;;;;;;;;;;14.08;72.61;100108.47;1052319;28;929;-61
2021/11/04 03:58:47;;;;;;;;;;;;;;;14.08;73.41;100096.91;1052074;28;730;-61
2021/11/04 03:59:37;;;;;;;;;;;;;;;14.08;73.17;100103.13;1052175;28;1163;-61
2021/11/04 04:00:28;;;;;;;;;;;;;;;14.08;72.76;100100.44;1052060;28;727;-61
2021/11/04 04:01:18;;;;;;;;;;;;;;;14.07;72.63;100106.78;1052824;28;669;-60
2021/11/04 04:02:09;;;;;;;;;;;;;;;14.07;73.23;100105.94;1052344;28;860;-61
2021/11/04 04:02:59;;;;;;;;;;;;;;;14.08;73.19;100096.91;1052123;28;723;-60
2021/11/04 04:03:49;;;;;;;;;;;;;;;14.07;73.33;100104.09;1052151;28;821;-61
2021/11/04 04:04:40;;;;;;;;;;;;;;;14.07;73.23;100112.13;1051933;28;798;-60
2021/11/04 04:05:30;;;;;;;;;;;;;;;14.08;73.15;100108.47;1052206;28;730;-61
2021/11/04 04:06:21;;;;;;;;;;;;;;;14.08;73.05;100112.97;1052452;28;785;-61
2021/11/04 04:07:11;;;;;;;;;;;;;;;14.08;73.33;100115.66;1052071;28;646;-60
2021/11/04 04:08:01;;;;;;;;;;;;;;;14.07;72.90;100119.31;1052300;28;744;-61
2021/11/04 04:08:52;;;;;;;;;;;;;;;14.06;73.38;100121.16;1052080;28;801;-61
2021/11/04 04:09:42;;;;;;;;;;;;;;;14.07;72.63;100122.00;1052230;28;716;-61
2021/11/04 04:10:33;;;;;;;;;;;;;;;14.07;73.36;100127.38;1051762;28;714;-60
2021/11/04 04:11:23;;;;;;;;;;;;;;;14.06;73.26;100126.53;1052668;28;669;-60
2021/11/04 04:12:14;;;;;;;;;;;;;;;14.07;73.01;100125.53;1052887;28;937;-60
2021/11/04 04:13:04;;;;;;;;;;;;;;;14.07;73.12;100127.38;1052652;28;2065;-61
2021/11/04 04:13:57;;;;;;;;;;;;;;;14.06;72.61;100131.88;1052759;28;1350;-60
2021/11/04 04:14:48;;;;;;;;;;;;;;;14.05;73.15;100130.19;1052499;28;927;-60
2021/11/04 04:15:38;;;;;;;;;;;;;;;14.07;72.54;100138.09;1052821;28;692;-61
2021/11/04 04:16:29;;;;;;;;;;;;;;;14.06;73.32;100131.03;1052881;28;923;-61
2021/11/04 04:17:21;;;;;;;;;;;;;;;14.05;72.58;100132.00;1052740;28;673;-61
2021/11/04 04:18:11;;;;;;;;;;;;;;;14.06;72.95;100133.72;1052187;28;771;-61
2021/11/04 04:19:02;;;;;;;;;;;;;;;14.05;72.76;100135.53;1052928;28;748;-61
2021/11/04 04:19:52;;;;;;;;;;;;;;;14.04;73.27;100128.47;1052641;28;731;-61
2021/11/04 04:20:42;;;;;;;;;;;;;;;14.04;72.90;100120.44;1052469;28;1894;-61
2021/11/04 04:21:33;;;;;;;;;;;;;;;14.03;73.37;100125.94;1053202;28;699;-61
2021/11/04 04:22:23;;;;;;;;;;;;;;;14.03;72.59;100129.47;1052825;28;791;-61
2021/11/04 04:23:14;;;;;;;;;;;;;;;14.04;72.67;100127.63;1053008;28;638;-61
2021/11/04 04:24:04;;;;;;;;;;;;;;;14.02;72.77;100133.13;1048851;28;748;-60
2021/11/04 04:24:54;;;;;;;;;;;;;;;14.03;72.99;100128.63;1049443;28;872;-60
2021/11/04 04:25:45;;;;;;;;;;;;;;;14.03;72.89;100132.16;1053635;28;728;-61